MMTO/TLC METAR and TAF weather

Enter ICAO airport designator
Station Type Date Time Source
MMTO METAR 2019/12/08 16:48 UTC NOAA

MMTO 081648Z 31003KT 4SM SKC 15/01 A3048 RMK HZ


Station Type Date Time Source
MMTO Decoded METAR 2019/12/08 16:48 UTC NOAA

Toluca / Jose Maria , Mexico (MMTO) 19-21N 099-34W
Dec 08, 2019 - 11:48 AM EST / 2019.12.08 1648 UTC
Wind: from the NW (310 degrees) at 3 MPH (3 KT):0
Visibility: 4 mile(s):0
Sky conditions: clear
Temperature: 59 F (15 C)
Dew Point: 33 F (1 C)
Relative Humidity: 38%
Pressure (altimeter): 30.48 in. Hg (1032 hPa)
ob: MMTO 081648Z 31003KT 4SM SKC 15/01 A3048 RMK HZ
cycle: 17

Station Type Date Time Source
MMTO TAF 2019/12/08 18:18 UTC NOAA

TAF TAF MMTO 081715Z 0818/0924 32005KT 5SM HZ SKC TX23/0821Z TN00/0913Z
BECMG 0820/0821 34008KT
FM090100 00000KT 6SM HZ SKC
BECMG 0912/0913 4SM HZ
FM091800 16005KT 5SM HZ SKC
BECMG 0920/0921 23010KT

Example: see airport list